Time;durP1;ratioP1;P1;durP2;ratioP2;P2;SDS_P1;SDS_P2;PMS_P1;PMS_P2;Temp;Humidity;BMP_temperature;BMP_pressure;BME280_temperature;BME280_humidity;BME280_pressure;Samples;Min_cycle;Max_cycle;Signal;HPM_P1;HPM_P2
2021/03/15 00:02:18;;;;;;;3.17;2.70;;;4.70;99.90;;;;;;5109436;28;20602;-84
2021/03/15 00:04:44;;;;;;;3.20;2.97;;;4.70;99.90;;;;;;5109576;28;20633;-82
2021/03/15 00:07:10;;;;;;;2.70;2.50;;;4.70;99.90;;;;;;5108883;28;20209;-81
2021/03/15 00:09:37;;;;;;;3.07;2.60;;;4.70;99.90;;;;;;5106069;28;20295;-81
2021/03/15 00:12:03;;;;;;;2.67;2.43;;;4.70;99.90;;;;;;5108019;28;20206;-80
2021/03/15 00:14:30;;;;;;;3.30;2.60;;;4.70;99.90;;;;;;5108864;28;20215;-81
2021/03/15 00:16:56;;;;;;;2.43;2.23;;;4.70;99.90;;;;;;5108302;28;20817;-82
2021/03/15 00:19:22;;;;;;;2.80;2.60;;;4.70;99.90;;;;;;5088480;28;20227;-80
2021/03/15 00:21:48;;;;;;;2.50;2.40;;;4.60;99.90;;;;;;5088686;28;20207;-80
2021/03/15 00:24:14;;;;;;;2.97;2.50;;;4.50;99.90;;;;;;5088715;28;20202;-81
2021/03/15 00:26:41;;;;;;;2.30;2.20;;;4.60;99.90;;;;;;5088434;28;20229;-81
2021/03/15 00:29:07;;;;;;;2.60;2.40;;;4.60;99.90;;;;;;5088502;28;20233;-80
2021/03/15 00:31:33;;;;;;;3.50;3.20;;;4.60;99.90;;;;;;5088338;28;20217;-80
2021/03/15 00:33:59;;;;;;;4.37;2.50;;;4.50;99.90;;;;;;5088588;28;20203;-80
2021/03/15 00:36:25;;;;;;;2.80;2.40;;;4.50;99.90;;;;;;5088703;28;20215;-80
2021/03/15 00:38:51;;;;;;;2.93;2.73;;;4.40;99.90;;;;;;5088363;28;20225;-80
2021/03/15 00:41:18;;;;;;;4.73;2.70;;;4.40;99.90;;;;;;5088402;28;20573;-80
2021/03/15 00:43:45;;;;;;;4.37;2.60;;;4.40;99.90;;;;;;5088129;28;20251;-81
2021/03/15 00:46:11;;;;;;;2.87;2.57;;;4.40;99.90;;;;;;5088202;28;20210;-81
2021/03/15 00:48:37;;;;;;;3.13;2.60;;;4.40;99.90;;;;;;5103435;28;20206;-80
2021/03/15 00:51:03;;;;;;;2.40;2.20;;;4.40;99.90;;;;;;5108674;28;20210;-80
2021/03/15 00:53:30;;;;;;;3.87;2.57;;;4.40;99.90;;;;;;5108912;28;20206;-80
2021/03/15 00:55:56;;;;;;;2.53;2.43;;;4.40;99.90;;;;;;5108750;28;20233;-80
2021/03/15 00:58:22;;;;;;;2.37;2.23;;;4.30;99.90;;;;;;5108473;28;20221;-81
2021/03/15 01:00:50;;;;;;;2.73;2.13;;;4.30;99.90;;;;;;5108150;28;20230;-81
2021/03/15 01:03:16;;;;;;;3.47;2.73;;;4.30;99.90;;;;;;5108136;28;20234;-81
2021/03/15 01:05:46;;;;;;;4.83;2.90;;;4.30;99.90;;;;;;5108739;28;20248;-81
2021/03/15 01:08:14;;;;;;;2.63;2.40;;;4.20;99.90;;;;;;5108823;28;20242;-80
2021/03/15 01:10:42;;;;;;;2.87;2.17;;;4.20;99.90;;;;;;5108388;28;20226;-80
2021/03/15 01:13:09;;;;;;;2.77;2.57;;;4.20;99.90;;;;;;5108735;28;20206;-82
2021/03/15 01:15:36;;;;;;;3.43;2.67;;;4.20;99.90;;;;;;5108617;28;20202;-82
2021/03/15 01:18:04;;;;;;;2.93;2.70;;;4.20;99.90;;;;;;5109272;28;20575;-82
2021/03/15 01:20:31;;;;;;;2.50;2.30;;;4.10;99.90;;;;;;5112628;28;20234;-84
2021/03/15 01:22:57;;;;;;;2.50;2.30;;;4.20;99.90;;;;;;5112822;28;20202;-83
2021/03/15 01:25:29;;;;;;;2.97;2.77;;;4.30;99.90;;;;;;5112715;28;20206;-83
2021/03/15 01:27:55;;;;;;;2.70;2.50;;;4.20;99.90;;;;;;5112592;28;20201;-83
2021/03/15 01:30:26;;;;;;;4.50;2.80;;;4.20;99.90;;;;;;5112172;28;20230;-84
2021/03/15 01:32:52;;;;;;;3.17;2.70;;;4.20;99.90;;;;;;5112351;28;20195;-83
2021/03/15 01:35:19;;;;;;;3.40;2.33;;;4.30;99.90;;;;;;5112177;28;21030;-82
2021/03/15 01:37:45;;;;;;;3.27;2.60;;;4.30;99.90;;;;;;5112088;28;20223;-82
2021/03/15 01:40:13;;;;;;;4.90;3.00;;;4.30;99.90;;;;;;5112011;28;20234;-83
2021/03/15 01:42:39;;;;;;;4.30;2.60;;;4.20;99.90;;;;;;5112058;28;20210;-84
2021/03/15 01:45:07;;;;;;;2.70;2.60;;;4.20;99.90;;;;;;5112109;28;20210;-83
2021/03/15 01:47:35;;;;;;;3.17;2.73;;;4.30;99.90;;;;;;5105804;28;20268;-82
2021/03/15 01:50:02;;;;;;;4.17;2.50;;;4.30;99.90;;;;;;5091704;28;20242;-84
2021/03/15 01:52:29;;;;;;;3.10;2.80;;;4.30;99.90;;;;;;5091457;28;20298;-82
2021/03/15 01:54:55;;;;;;;3.57;2.70;;;4.30;99.90;;;;;;5091281;28;20264;-81
2021/03/15 01:57:21;;;;;;;3.07;2.73;;;4.30;99.90;;;;;;5091168;28;20210;-81
2021/03/15 01:59:48;;;;;;;3.93;2.60;;;4.30;99.90;;;;;;5090830;28;20280;-82
2021/03/15 02:02:14;;;;;;;3.23;2.47;;;4.30;99.90;;;;;;5090950;28;20288;-81
2021/03/15 02:04:40;;;;;;;3.43;2.90;;;4.30;99.90;;;;;;5090785;28;20198;-82
2021/03/15 02:07:06;;;;;;;3.20;2.60;;;4.30;99.90;;;;;;5091210;28;20238;-81
2021/03/15 02:09:33;;;;;;;3.83;2.80;;;4.30;99.90;;;;;;5090851;28;20206;-83
2021/03/15 02:12:16;;;;;;;3.53;2.77;;;4.30;99.90;;;;;;5090821;28;20272;-81
2021/03/15 02:14:54;;;;;;;4.57;3.03;;;4.30;99.90;;;;;;5090523;28;20619;-81
2021/03/15 02:17:28;;;;;;;3.33;3.03;;;4.30;99.90;;;;;;5094659;28;20206;-81
2021/03/15 02:20:40;;;;;;;2.73;2.53;;;4.30;99.90;;;;;;5110853;27;20267;-79
2021/03/15 02:23:10;;;;;;;4.30;3.17;;;4.30;99.90;;;;;;5110789;28;20740;-80
2021/03/15 02:26:15;;;;;;;3.40;3.03;;;4.30;99.90;;;;;;5110832;28;20194;-80
2021/03/15 02:28:58;;;;;;;4.23;2.80;;;4.30;99.90;;;;;;5110056;28;20663;-81
2021/03/15 02:31:52;;;;;;;4.50;3.10;;;4.30;99.90;;;;;;5110835;28;20694;-81
2021/03/15 02:34:45;;;;;;;3.07;2.87;;;4.30;99.90;;;;;;5110887;28;20195;-82
2021/03/15 02:37:16;;;;;;;5.03;3.00;;;4.30;99.90;;;;;;5110743;28;20197;-81
2021/03/15 02:39:46;;;;;;;3.30;3.00;;;4.40;99.90;;;;;;5110290;28;20628;-81
2021/03/15 02:42:17;;;;;;;3.17;2.87;;;4.30;99.90;;;;;;5110936;28;20640;-81
2021/03/15 02:44:45;;;;;;;3.17;2.97;;;4.30;99.90;;;;;;5110224;28;20645;-81
2021/03/15 02:47:18;;;;;;;5.00;3.20;;;4.30;99.90;;;;;;5110225;27;20698;-81
2021/03/15 02:49:47;;;;;;;3.63;3.30;;;4.30;99.90;;;;;;5110565;28;20198;-82
2021/03/15 02:52:15;;;;;;;3.60;3.30;;;4.30;99.90;;;;;;5109977;28;20675;-81
2021/03/15 02:54:44;;;;;;;3.63;3.03;;;4.30;99.90;;;;;;5110003;28;20202;-79
2021/03/15 02:57:11;;;;;;;3.90;3.30;;;4.20;99.90;;;;;;5110239;28;20274;-80
2021/03/15 02:59:38;;;;;;;5.20;3.80;;;4.20;99.90;;;;;;5110051;27;20237;-81
2021/03/15 03:02:05;;;;;;;4.60;3.60;;;4.20;99.90;;;;;;5109705;28;20213;-79
2021/03/15 03:04:32;;;;;;;3.83;3.40;;;4.20;99.90;;;;;;5110176;28;20228;-79
2021/03/15 03:07:00;;;;;;;4.43;3.23;;;4.20;99.90;;;;;;5110071;28;20202;-80
2021/03/15 03:09:27;;;;;;;5.70;3.43;;;4.20;99.90;;;;;;5110032;27;20214;-79
2021/03/15 03:11:55;;;;;;;5.50;3.77;;;4.20;99.90;;;;;;5109851;28;20206;-79
2021/03/15 03:14:22;;;;;;;5.37;4.23;;;4.30;99.90;;;;;;5109685;28;20251;-79
2021/03/15 03:16:50;;;;;;;4.40;3.87;;;4.30;99.90;;;;;;5109732;28;20205;-81
2021/03/15 03:19:18;;;;;;;6.93;3.90;;;4.30;99.90;;;;;;5089611;28;20283;-81
2021/03/15 03:21:46;;;;;;;7.10;4.40;;;4.30;99.90;;;;;;5089418;28;20246;-84
2021/03/15 03:24:14;;;;;;;4.93;4.13;;;4.30;99.90;;;;;;5090442;28;20300;-81
2021/03/15 03:26:42;;;;;;;4.77;4.17;;;4.30;99.90;;;;;;5089683;28;20203;-83
2021/03/15 03:29:11;;;;;;;7.60;4.43;;;4.20;99.90;;;;;;5089718;28;20551;-83
2021/03/15 03:31:41;;;;;;;4.77;4.10;;;4.20;99.90;;;;;;5089632;28;20206;-82
2021/03/15 03:34:08;;;;;;;6.57;4.73;;;4.20;99.90;;;;;;5089952;28;20256;-82
2021/03/15 03:36:35;;;;;;;6.87;4.23;;;4.10;99.90;;;;;;5089372;28;20253;-81
2021/03/15 03:39:01;;;;;;;8.53;5.07;;;4.10;99.90;;;;;;5088869;28;20695;-79
2021/03/15 03:41:28;;;;;;;5.00;4.50;;;4.10;99.90;;;;;;5088495;28;20642;-81
2021/03/15 03:43:54;;;;;;;6.23;4.50;;;4.00;99.90;;;;;;5088793;28;20208;-81
2021/03/15 03:46:20;;;;;;;7.53;5.03;;;3.90;99.90;;;;;;5089217;28;20229;-84
2021/03/15 03:48:46;;;;;;;7.83;4.63;;;3.80;99.90;;;;;;5106003;28;20214;-84
2021/03/15 03:51:12;;;;;;;7.40;4.70;;;3.80;99.90;;;;;;5109941;28;20206;-84
2021/03/15 03:53:46;;;;;;;6.67;5.33;;;3.80;99.90;;;;;;5109844;28;20214;-81
2021/03/15 03:56:14;;;;;;;5.93;4.73;;;3.70;99.90;;;;;;5109257;27;20207;-80
2021/03/15 03:58:44;;;;;;;5.43;4.93;;;3.70;99.90;;;;;;5108927;28;20610;-77
2021/03/15 04:01:12;;;;;;;7.27;4.70;;;3.70;99.90;;;;;;5109351;28;20617;-79
2021/03/15 04:03:39;;;;;;;6.30;4.57;;;3.70;99.90;;;;;;5108885;28;20241;-82
2021/03/15 04:06:08;;;;;;;7.27;4.67;;;3.70;99.90;;;;;;5095864;28;20214;-76
2021/03/15 04:08:41;;;;;;;5.10;4.60;;;3.70;99.90;;;;;;5089036;28;20206;-79
2021/03/15 04:11:11;;;;;;;6.80;4.80;;;3.70;99.90;;;;;;5090953;28;20256;-79
2021/03/15 04:13:40;;;;;;;5.73;4.37;;;3.80;99.90;;;;;;5104728;28;20652;-79
2021/03/15 04:16:10;;;;;;;5.10;4.43;;;3.80;99.90;;;;;;5104397;28;20203;-78
2021/03/15 04:18:37;;;;;;;6.90;4.60;;;3.90;99.90;;;;;;5104958;28;20205;-80
2021/03/15 04:21:06;;;;;;;7.07;4.67;;;3.90;99.90;;;;;;5104527;28;20480;-79
2021/03/15 04:23:36;;;;;;;6.27;4.33;;;4.00;99.90;;;;;;5105119;28;20210;-81
2021/03/15 04:26:03;;;;;;;4.60;4.07;;;4.00;99.90;;;;;;5104555;28;20206;-76
2021/03/15 04:28:32;;;;;;;5.83;4.73;;;4.00;99.90;;;;;;5104773;28;20195;-79
2021/03/15 04:30:59;;;;;;;6.43;4.40;;;4.10;99.90;;;;;;5104413;28;20577;-78
2021/03/15 04:33:27;;;;;;;5.90;4.37;;;4.00;99.90;;;;;;5104635;28;20217;-81
2021/03/15 04:35:53;;;;;;;5.77;4.13;;;3.90;99.90;;;;;;5104826;28;20310;-81
2021/03/15 04:38:22;;;;;;;4.93;3.87;;;3.90;99.90;;;;;;5104913;28;20248;-81
2021/03/15 04:40:49;;;;;;;5.57;4.40;;;3.80;99.90;;;;;;5104625;28;20233;-83
2021/03/15 04:43:17;;;;;;;5.83;3.90;;;3.80;99.90;;;;;;5104901;28;20217;-83
2021/03/15 04:45:44;;;;;;;4.97;3.97;;;3.80;99.90;;;;;;5105132;28;20202;-82
2021/03/15 04:48:15;;;;;;;5.60;4.53;;;3.70;99.90;;;;;;5104917;28;20228;-82
2021/03/15 04:50:44;;;;;;;6.70;3.97;;;3.70;99.90;;;;;;5104919;28;20221;-81
2021/03/15 04:53:12;;;;;;;5.13;4.60;;;3.60;99.90;;;;;;5105295;28;20691;-80
2021/03/15 04:55:40;;;;;;;8.80;4.60;;;3.60;99.90;;;;;;5108769;28;20233;-80
2021/03/15 04:58:09;;;;;;;7.00;4.27;;;3.70;99.90;;;;;;5108104;28;20240;-82
2021/03/15 05:00:36;;;;;;;7.17;4.83;;;3.70;99.90;;;;;;5091329;28;20700;-80
2021/03/15 05:03:05;;;;;;;7.43;4.70;;;3.70;99.90;;;;;;5095361;28;20254;-82
2021/03/15 05:05:33;;;;;;;6.30;4.50;;;3.70;99.90;;;;;;5109477;28;20206;-80
2021/03/15 05:08:02;;;;;;;5.00;4.20;;;3.70;99.90;;;;;;5111934;28;20205;-80
2021/03/15 05:10:29;;;;;;;5.43;4.37;;;3.70;99.90;;;;;;5104146;28;20237;-81
2021/03/15 05:12:57;;;;;;;5.30;4.80;;;3.70;99.90;;;;;;5101037;28;20233;-81
2021/03/15 05:15:24;;;;;;;6.73;5.00;;;3.80;99.90;;;;;;5099746;28;20202;-80
2021/03/15 05:17:51;;;;;;;11.90;6.47;;;3.70;99.90;;;;;;5100995;28;20205;-81
2021/03/15 05:20:18;;;;;;;8.70;5.30;;;3.70;99.90;;;;;;5098238;28;20235;-80
2021/03/15 05:22:45;;;;;;;8.07;5.47;;;3.60;99.90;;;;;;5101395;27;20772;-81
2021/03/15 05:25:13;;;;;;;7.40;5.77;;;3.60;99.90;;;;;;5100670;28;20672;-81
2021/03/15 05:27:40;;;;;;;7.67;5.60;;;3.70;99.90;;;;;;5099647;28;20606;-81
2021/03/15 05:30:09;;;;;;;7.43;5.07;;;3.60;99.90;;;;;;5099205;28;20222;-81
2021/03/15 05:32:40;;;;;;;7.67;5.30;;;3.60;99.90;;;;;;5098335;28;20378;-80
2021/03/15 05:35:08;;;;;;;6.20;5.23;;;3.60;99.90;;;;;;5099816;28;20260;-81
2021/03/15 05:37:36;;;;;;;8.57;4.90;;;3.60;99.90;;;;;;5100524;28;20198;-80
2021/03/15 05:40:05;;;;;;;6.20;5.20;;;3.60;99.90;;;;;;5104388;28;20244;-81
2021/03/15 05:42:45;;;;;;;8.53;5.17;;;3.50;99.90;;;;;;5103081;28;20195;-81
2021/03/15 05:45:25;;;;;;;8.80;5.17;;;3.50;99.90;;;;;;5102301;28;20271;-81
2021/03/15 05:48:26;;;;;;;7.87;4.60;;;3.60;99.90;;;;;;5098907;28;20205;-81
2021/03/15 05:51:27;;;;;;;6.13;4.40;;;3.70;99.90;;;;;;5096987;28;20672;-81
2021/03/15 05:54:27;;;;;;;9.53;5.10;;;3.70;99.90;;;;;;5095029;28;20205;-82
2021/03/15 05:57:13;;;;;;;9.90;4.37;;;3.70;99.90;;;;;;5101293;28;20248;-81
2021/03/15 06:00:00;;;;;;;6.90;4.70;;;3.70;99.90;;;;;;5100598;28;20225;-81
2021/03/15 06:02:56;;;;;;;6.97;4.73;;;3.70;99.90;;;;;;5095424;28;20279;-81
2021/03/15 06:05:24;;;;;;;5.73;4.53;;;3.70;99.90;;;;;;5090581;28;20540;-81
2021/03/15 06:07:53;;;;;;;7.13;4.70;;;3.70;99.90;;;;;;5097403;28;20191;-77
2021/03/15 06:10:23;;;;;;;7.63;5.00;;;3.80;99.90;;;;;;5099111;28;20261;-80
2021/03/15 06:12:53;;;;;;;8.50;4.90;;;4.00;99.90;;;;;;5094838;28;20202;-83
2021/03/15 06:15:31;;;;;;;7.93;4.90;;;3.90;99.90;;;;;;5098063;28;20205;-80
2021/03/15 06:17:57;;;;;;;4.90;4.50;;;3.90;99.90;;;;;;5098652;28;20199;-79
2021/03/15 06:20:24;;;;;;;8.53;4.70;;;3.90;99.90;;;;;;5101848;28;20267;-80
2021/03/15 06:22:50;;;;;;;5.33;3.67;;;3.90;99.90;;;;;;5097702;28;20668;-81
2021/03/15 06:25:17;;;;;;;4.53;4.07;;;3.90;99.90;;;;;;5101638;28;20205;-79
2021/03/15 06:27:44;;;;;;;6.27;4.30;;;3.80;99.90;;;;;;5098290;28;20199;-81
2021/03/15 06:30:11;;;;;;;5.70;4.60;;;3.80;99.90;;;;;;5100513;27;20215;-81
2021/03/15 06:32:39;;;;;;;5.10;4.53;;;3.90;99.90;;;;;;5103360;28;20202;-81
2021/03/15 06:35:06;;;;;;;7.77;4.27;;;3.90;99.90;;;;;;5102447;28;20215;-81
2021/03/15 06:37:34;;;;;;;6.90;4.03;;;3.90;99.90;;;;;;5095809;28;20194;-80
2021/03/15 06:40:01;;;;;;;4.83;4.03;;;3.90;99.90;;;;;;5102615;28;20221;-80
2021/03/15 06:42:30;;;;;;;5.47;4.17;;;4.00;99.90;;;;;;5100061;28;20234;-81
2021/03/15 06:44:56;;;;;;;6.20;3.90;;;4.00;99.90;;;;;;5098598;28;20194;-80
2021/03/15 06:47:23;;;;;;;6.37;4.30;;;4.00;99.90;;;;;;5101453;28;20209;-80
2021/03/15 06:49:50;;;;;;;8.37;3.83;;;4.00;99.90;;;;;;5097013;28;20198;-80
2021/03/15 06:52:17;;;;;;;6.67;3.90;;;4.10;99.90;;;;;;5099823;28;20190;-81
2021/03/15 06:54:43;;;;;;;5.73;3.90;;;4.00;99.90;;;;;;5100282;28;20201;-80
2021/03/15 06:57:17;;;;;;;6.33;3.87;;;4.10;99.90;;;;;;5099227;28;20939;-82
2021/03/15 06:59:48;;;;;;;4.93;3.97;;;4.10;99.90;;;;;;5098164;28;20218;-80
2021/03/15 07:02:26;;;;;;;5.40;3.77;;;4.10;99.90;;;;;;5089631;28;20238;-81
2021/03/15 07:04:55;;;;;;;5.70;4.43;;;4.10;99.90;;;;;;5089264;28;20195;-83
2021/03/15 07:07:27;;;;;;;7.20;3.90;;;4.10;99.90;;;;;;5089369;28;20582;-72
2021/03/15 07:09:55;;;;;;;6.23;4.20;;;4.30;99.90;;;;;;5089423;28;20629;-82
2021/03/15 07:12:22;;;;;;;5.83;3.87;;;4.40;99.90;;;;;;5089552;28;20203;-84
2021/03/15 07:14:49;;;;;;;5.17;4.00;;;4.40;99.90;;;;;;5089190;28;20205;-81
2021/03/15 07:17:24;;;;;;;7.87;4.00;;;4.30;99.90;;;;;;5099312;28;20206;-80
2021/03/15 07:19:50;;;;;;;5.27;3.77;;;4.40;99.90;;;;;;5098493;28;20283;-81
2021/03/15 07:22:22;;;;;;;4.73;3.80;;;4.40;99.90;;;;;;5097855;28;20198;-81
2021/03/15 07:25:09;;;;;;;5.90;4.00;;;4.30;99.90;;;;;;5096628;28;20232;-82
2021/03/15 07:27:37;;;;;;;4.50;3.60;;;4.40;99.90;;;;;;5101426;28;20202;-81
2021/03/15 07:30:42;;;;;;;5.70;4.43;;;4.40;99.90;;;;;;5095428;28;20220;-81
2021/03/15 07:33:17;;;;;;;5.67;4.00;;;4.40;99.90;;;;;;5086767;28;20203;-81
2021/03/15 07:35:43;;;;;;;4.87;3.80;;;4.40;99.90;;;;;;5088296;28;20281;-82
2021/03/15 07:38:10;;;;;;;3.90;3.53;;;4.50;99.90;;;;;;5088482;28;20214;-81
2021/03/15 07:40:40;;;;;;;5.23;3.63;;;4.50;99.90;;;;;;5088049;28;20233;-79
2021/03/15 07:43:08;;;;;;;5.07;4.27;;;4.50;99.90;;;;;;5097919;28;20199;-81
2021/03/15 07:45:40;;;;;;;4.40;3.53;;;4.60;99.90;;;;;;5097989;28;20277;-82
2021/03/15 07:48:20;;;;;;;5.17;3.93;;;4.60;99.90;;;;;;5096713;28;20232;-81
2021/03/15 07:51:01;;;;;;;4.10;3.73;;;4.60;99.90;;;;;;5088341;28;20637;-81
2021/03/15 07:53:36;;;;;;;7.10;3.93;;;4.70;99.90;;;;;;5088137;28;20715;-81
2021/03/15 07:56:03;;;;;;;6.53;3.60;;;4.70;99.90;;;;;;5087729;28;20206;-83
2021/03/15 07:58:32;;;;;;;4.00;3.67;;;4.80;99.90;;;;;;5087598;28;20229;-82
2021/03/15 08:01:00;;;;;;;4.57;4.07;;;4.80;99.90;;;;;;5087979;28;20316;-81
2021/03/15 08:03:27;;;;;;;4.43;4.03;;;4.90;99.90;;;;;;5087974;28;20230;-82
2021/03/15 08:05:55;;;;;;;5.00;3.60;;;4.90;99.90;;;;;;5088545;28;20194;-83
2021/03/15 08:08:22;;;;;;;4.47;4.00;;;5.00;99.90;;;;;;5088795;28;20203;-82
2021/03/15 08:10:50;;;;;;;4.77;3.67;;;5.10;99.90;;;;;;5088755;28;20206;-82
2021/03/15 08:13:20;;;;;;;5.27;4.13;;;5.20;99.90;;;;;;5088493;28;20682;-82
2021/03/15 08:15:47;;;;;;;5.67;4.83;;;5.30;99.90;;;;;;5088765;28;20218;-82
2021/03/15 08:18:20;;;;;;;5.37;3.73;;;5.40;99.90;;;;;;5088599;28;20259;-82
2021/03/15 08:20:48;;;;;;;5.23;3.93;;;5.30;99.90;;;;;;5088702;28;20309;-83
2021/03/15 08:23:17;;;;;;;4.13;3.73;;;5.30;99.90;;;;;;5088302;28;20206;-81
2021/03/15 08:25:44;;;;;;;6.60;4.10;;;5.30;99.90;;;;;;5088664;28;20207;-82
2021/03/15 08:28:12;;;;;;;5.03;4.30;;;5.30;99.90;;;;;;5091229;28;20207;-81
2021/03/15 08:30:43;;;;;;;5.40;3.90;;;5.20;99.90;;;;;;5092554;28;20206;-82
2021/03/15 08:33:13;;;;;;;4.37;3.97;;;5.20;99.90;;;;;;5092430;28;20191;-80
2021/03/15 08:35:40;;;;;;;4.60;4.20;;;5.20;99.90;;;;;;5092808;28;20210;-81
2021/03/15 08:38:07;;;;;;;4.80;4.40;;;5.30;99.90;;;;;;5092411;28;20568;-81
2021/03/15 08:40:54;;;;;;;5.70;4.47;;;5.30;99.90;;;;;;5094771;28;20279;-80
2021/03/15 08:43:36;;;;;;;5.83;4.73;;;5.30;99.90;;;;;;5099409;28;20197;-79
2021/03/15 08:46:04;;;;;;;5.70;5.20;;;5.40;99.90;;;;;;5096459;28;20267;-78
2021/03/15 08:49:02;;;;;;;4.73;4.43;;;5.50;99.90;;;;;;5106817;28;20237;-80
2021/03/15 08:51:48;;;;;;;6.83;5.17;;;5.50;99.90;;;;;;5074678;28;20202;-81
2021/03/15 08:54:38;;;;;;;7.50;6.70;;;5.40;99.90;;;;;;5097522;28;20190;-79
2021/03/15 08:57:06;;;;;;;7.10;5.30;;;5.30;99.90;;;;;;5099415;28;20194;-80
2021/03/15 08:59:34;;;;;;;5.77;5.17;;;5.40;99.90;;;;;;5096511;28;20194;-79
2021/03/15 09:02:04;;;;;;;5.10;4.70;;;5.30;99.90;;;;;;5106271;28;20195;-80
2021/03/15 09:04:40;;;;;;;5.70;4.77;;;5.30;99.90;;;;;;5106138;28;20194;-81
2021/03/15 09:07:28;;;;;;;5.83;5.33;;;5.30;99.90;;;;;;5107221;28;20202;-80
2021/03/15 09:09:54;;;;;;;5.60;5.00;;;5.40;99.90;;;;;;5105802;28;20191;-80
2021/03/15 09:12:21;;;;;;;4.47;4.10;;;5.40;99.90;;;;;;5102714;28;20195;-80
2021/03/15 09:14:55;;;;;;;4.30;4.00;;;5.40;99.90;;;;;;5096723;28;20932;-80
2021/03/15 09:17:33;;;;;;;4.60;4.00;;;5.50;99.90;;;;;;5090970;28;20201;-80
2021/03/15 09:20:16;;;;;;;4.90;4.47;;;5.40;99.90;;;;;;5090374;28;20682;-80
2021/03/15 09:22:42;;;;;;;4.90;4.27;;;5.50;99.90;;;;;;5098194;28;20194;-81
2021/03/15 09:25:19;;;;;;;5.13;4.13;;;5.50;99.90;;;;;;5102805;28;20944;-81
2021/03/15 09:27:50;;;;;;;5.13;4.63;;;5.60;99.90;;;;;;5090695;28;20247;-81
2021/03/15 09:30:20;;;;;;;4.60;4.30;;;5.70;99.90;;;;;;5090709;28;20709;-80
2021/03/15 09:32:49;;;;;;;4.50;4.10;;;5.60;99.90;;;;;;5090564;28;20211;-80
2021/03/15 09:35:28;;;;;;;4.30;3.90;;;5.70;99.90;;;;;;5090629;28;20203;-79
2021/03/15 09:37:58;;;;;;;4.17;3.87;;;5.80;99.90;;;;;;5090540;28;20237;-81
2021/03/15 09:40:29;;;;;;;4.23;3.93;;;5.90;99.90;;;;;;5089297;28;20590;-80
2021/03/15 09:42:56;;;;;;;3.40;3.20;;;6.00;99.90;;;;;;5091113;28;21160;-80
2021/03/15 09:45:26;;;;;;;3.70;3.40;;;5.90;99.90;;;;;;5090688;28;20203;-80
2021/03/15 09:47:52;;;;;;;3.90;3.60;;;6.00;99.90;;;;;;5096085;28;20195;-80
2021/03/15 09:50:22;;;;;;;3.10;2.80;;;6.00;99.90;;;;;;5101405;28;20194;-80
2021/03/15 09:52:48;;;;;;;3.50;3.20;;;5.90;99.90;;;;;;5101659;28;20198;-83
2021/03/15 09:55:14;;;;;;;3.10;2.90;;;5.90;99.90;;;;;;5099351;28;20206;-82
2021/03/15 09:57:40;;;;;;;4.13;3.47;;;5.90;99.90;;;;;;5100684;28;20678;-80
2021/03/15 10:00:09;;;;;;;3.50;3.20;;;6.00;99.90;;;;;;5098423;28;20218;-81
2021/03/15 10:02:36;;;;;;;3.17;2.97;;;6.10;99.90;;;;;;5101945;28;20238;-81
2021/03/15 10:05:03;;;;;;;2.87;2.67;;;6.10;99.90;;;;;;5099125;28;20194;-80
2021/03/15 10:07:30;;;;;;;3.40;2.70;;;6.20;99.90;;;;;;5096751;28;20203;-81
2021/03/15 10:09:56;;;;;;;2.57;2.37;;;6.30;99.90;;;;;;5102132;27;20661;-80
2021/03/15 10:18:22;;;;;;;3.30;3.07;;;6.20;99.90;;;;;;5821079;22;21436;-73
2021/03/15 10:20:49;;;;;;;3.60;2.90;;;6.30;99.90;;;;;;5018305;28;20225;-79
2021/03/15 10:23:17;;;;;;;2.20;2.10;;;6.50;99.90;;;;;;5023236;28;20270;-78
2021/03/15 10:25:54;;;;;;;3.50;2.70;;;6.50;99.90;;;;;;5026840;28;20259;-79
2021/03/15 10:28:20;;;;;;;2.30;2.20;;;6.40;99.90;;;;;;5017314;28;20224;-79
2021/03/15 10:30:46;;;;;;;2.93;2.73;;;6.50;99.90;;;;;;5020598;28;20629;-79
2021/03/15 10:33:12;;;;;;;2.30;2.20;;;6.40;99.90;;;;;;5020313;28;20232;-79
2021/03/15 10:35:41;;;;;;;2.57;2.37;;;6.50;99.90;;;;;;5020726;28;20672;-79
2021/03/15 10:38:07;;;;;;;2.50;2.20;;;6.50;99.90;;;;;;5020961;28;20197;-79
2021/03/15 10:40:34;;;;;;;2.10;2.00;;;6.50;99.90;;;;;;5020536;28;20654;-79
2021/03/15 10:43:00;;;;;;;2.37;2.20;;;6.50;99.90;;;;;;5018062;28;20209;-79
2021/03/15 10:45:30;;;;;;;2.20;2.10;;;6.50;99.90;;;;;;5020946;28;20233;-80
2021/03/15 10:48:01;;;;;;;2.13;2.03;;;6.60;99.90;;;;;;5020621;28;20196;-80
2021/03/15 10:50:29;;;;;;;3.10;2.27;;;6.50;99.90;;;;;;5018857;28;20197;-80
2021/03/15 10:52:57;;;;;;;2.40;2.20;;;6.50;99.90;;;;;;5017932;28;20212;-79
2021/03/15 10:55:30;;;;;;;2.10;2.00;;;6.40;99.90;;;;;;5014996;28;20198;-79
2021/03/15 10:58:01;;;;;;;2.10;2.00;;;6.30;99.90;;;;;;5020201;28;20215;-78
2021/03/15 11:00:29;;;;;;;3.03;2.20;;;6.30;99.90;;;;;;5024778;28;20228;-78
2021/03/15 11:02:56;;;;;;;2.90;2.50;;;6.40;99.90;;;;;;5029385;28;20209;-78
2021/03/15 11:05:22;;;;;;;4.97;2.77;;;6.40;99.90;;;;;;5029493;28;20201;-78
2021/03/15 11:07:50;;;;;;;2.80;2.60;;;6.70;99.90;;;;;;5029383;28;20625;-78
2021/03/15 11:10:20;;;;;;;3.07;2.63;;;6.90;99.90;;;;;;5029156;28;20354;-78
2021/03/15 11:12:47;;;;;;;3.20;3.00;;;7.00;99.90;;;;;;5029388;28;20208;-78
2021/03/15 11:15:20;;;;;;;2.93;2.73;;;7.00;99.90;;;;;;5029425;28;20213;-78
2021/03/15 11:18:19;;;;;;;3.90;3.50;;;7.10;99.90;;;;;;5029432;28;20224;-78
2021/03/15 11:20:51;;;;;;;4.10;3.80;;;7.20;99.90;;;;;;4986750;28;20217;-79
2021/03/15 11:23:31;;;;;;;4.00;3.70;;;7.30;99.90;;;;;;5009478;28;20259;-78
2021/03/15 11:26:06;;;;;;;3.10;2.90;;;7.00;99.90;;;;;;4989810;28;20288;-79
2021/03/15 11:28:38;;;;;;;2.93;2.73;;;7.00;99.90;;;;;;5005200;28;20201;-79
2021/03/15 11:31:05;;;;;;;2.67;2.57;;;7.20;99.90;;;;;;5019234;28;20198;-79
2021/03/15 11:33:31;;;;;;;3.10;2.70;;;7.50;99.90;;;;;;5019935;28;20225;-79
2021/03/15 11:35:59;;;;;;;2.70;2.60;;;7.90;99.90;;;;;;5012461;28;20209;-79
2021/03/15 11:38:26;;;;;;;2.50;2.30;;;8.10;99.90;;;;;;5017485;28;20224;-79
2021/03/15 11:40:53;;;;;;;2.10;2.00;;;8.50;99.90;;;;;;5018509;28;20224;-79
2021/03/15 11:43:21;;;;;;;2.50;2.30;;;8.60;99.90;;;;;;5016126;28;20206;-80
2021/03/15 11:45:47;;;;;;;2.13;2.03;;;8.80;99.90;;;;;;5016481;28;20200;-80
2021/03/15 11:48:13;;;;;;;2.33;2.17;;;8.60;99.90;;;;;;5016378;28;20194;-79
2021/03/15 11:50:40;;;;;;;2.07;1.97;;;8.40;99.90;;;;;;5021461;28;20617;-79
2021/03/15 11:53:07;;;;;;;2.17;1.97;;;8.20;99.90;;;;;;5013082;28;20201;-79
2021/03/15 11:55:34;;;;;;;2.13;2.03;;;8.20;99.90;;;;;;5018272;28;20242;-79
2021/03/15 11:58:00;;;;;;;2.10;2.00;;;8.20;99.90;;;;;;5019259;28;20274;-79
2021/03/15 12:00:27;;;;;;;1.83;1.73;;;8.40;99.90;;;;;;5013130;28;20244;-81
2021/03/15 12:02:54;;;;;;;1.93;1.80;;;8.70;99.90;;;;;;5008567;28;20295;-81
2021/03/15 12:05:22;;;;;;;2.23;2.13;;;8.90;99.90;;;;;;5015298;28;20200;-77
2021/03/15 12:07:48;;;;;;;1.50;1.47;;;9.10;99.90;;;;;;5019893;28;20232;-77
2021/03/15 12:10:15;;;;;;;2.07;1.70;;;8.90;99.90;;;;;;5027446;28;20213;-77
2021/03/15 12:12:42;;;;;;;1.90;1.80;;;8.70;99.90;;;;;;5011408;28;20673;-77
2021/03/15 12:15:10;;;;;;;1.93;1.83;;;8.70;99.90;;;;;;5019543;28;20206;-77
2021/03/15 12:17:38;;;;;;;2.27;2.17;;;8.50;99.90;;;;;;5020102;28;20610;-77
2021/03/15 12:20:05;;;;;;;2.03;1.90;;;8.30;99.90;;;;;;5010427;28;20232;-78
2021/03/15 12:22:32;;;;;;;2.40;2.20;;;8.10;99.90;;;;;;5025167;28;20655;-77
2021/03/15 12:24:58;;;;;;;2.20;2.10;;;8.00;99.90;;;;;;5011382;28;20268;-76
2021/03/15 12:27:24;;;;;;;2.60;2.50;;;7.80;99.90;;;;;;5013172;28;20210;-77
2021/03/15 12:29:50;;;;;;;2.73;2.53;;;7.60;99.90;;;;;;5013294;28;20192;-77
2021/03/15 12:32:17;;;;;;;2.33;2.20;;;7.60;99.90;;;;;;5012574;28;20201;-76
2021/03/15 12:34:44;;;;;;;2.30;2.17;;;7.50;99.90;;;;;;5010881;28;20279;-77
2021/03/15 12:37:10;;;;;;;2.53;2.40;;;7.40;99.90;;;;;;5019684;28;20282;-77
2021/03/15 12:39:36;;;;;;;3.33;2.40;;;7.30;99.90;;;;;;5013759;28;20233;-77
2021/03/15 12:42:03;;;;;;;2.70;2.50;;;7.30;99.90;;;;;;5012583;28;20737;-77
2021/03/15 12:44:29;;;;;;;3.10;2.47;;;7.40;99.90;;;;;;5013293;28;20224;-79
2021/03/15 12:46:55;;;;;;;2.33;2.13;;;7.40;99.90;;;;;;5020595;28;20205;-77
2021/03/15 12:49:22;;;;;;;2.33;2.10;;;7.40;99.90;;;;;;5024872;28;20371;-77
2021/03/15 12:51:49;;;;;;;2.43;2.27;;;7.40;99.90;;;;;;5028321;28;20216;-77
2021/03/15 12:54:15;;;;;;;2.83;2.63;;;7.40;99.90;;;;;;5021285;28;20206;-77
2021/03/15 12:56:41;;;;;;;3.63;2.37;;;7.40;99.90;;;;;;5008393;28;20279;-77
2021/03/15 12:59:08;;;;;;;4.30;2.70;;;7.30;99.90;;;;;;5007912;28;20672;-77
2021/03/15 13:01:34;;;;;;;3.03;2.50;;;7.40;99.90;;;;;;5008295;28;20331;-76
2021/03/15 13:04:00;;;;;;;3.10;2.90;;;7.40;99.90;;;;;;5007985;28;20687;-77
2021/03/15 13:06:26;;;;;;;3.07;2.53;;;7.40;99.90;;;;;;5008097;28;20214;-77
2021/03/15 13:08:53;;;;;;;3.10;2.80;;;7.40;99.90;;;;;;5007792;28;20245;-77
2021/03/15 13:11:19;;;;;;;3.33;2.87;;;7.40;99.90;;;;;;5008306;28;20256;-78
2021/03/15 13:13:46;;;;;;;2.70;2.50;;;7.40;99.90;;;;;;5008629;28;20209;-77
2021/03/15 13:16:12;;;;;;;2.97;2.77;;;7.40;99.90;;;;;;5011698;28;20213;-77
2021/03/15 13:18:38;;;;;;;4.63;3.00;;;7.30;99.90;;;;;;5008181;28;20237;-77